Flight Track Log - Related Links

Times and Time Zones

All times are in EST time to prevent confusion due to time zone crossing. See the USC311 flight status page for this flight to view local times or setup timezone preferences in your user account.


Time Position Orientation Groundspeed Altitude Reporting Facility
EST Latitude Longitude Course Direction KTS MPH feet Rate Location/Type
Fri 09:15:23 PM 42.9333 -87.9667 303° West 106 122 2,500  Level Milwaukee TRACON
Fri 09:16:11 PM 42.9483 -87.9978 303° West 111 128 3,300 1,091 Climbing Chicago Center
Fri 09:17:13 PM 42.9589 -88.0389 289° West 112 129 4,500 871 Climbing Chicago Center
Fri 09:18:15 PM 42.9733 -88.0828 294° West 122 140 5,100 774 Climbing Chicago Center
Fri 09:19:17 PM 42.9900 -88.1400 292° West 152 175 6,100 1,161 Climbing Chicago Center
Fri 09:20:19 PM 43.0028 -88.1822 292° West 127 146 7,500 968 Climbing Chicago Center
Fri 09:21:21 PM 43.0183 -88.2372 291° West 134 154 8,100 290 Climbing Chicago Center
Fri 09:22:23 PM 43.0361 -88.2936 293° West 158 182 8,100  Level Chicago Center
Fri 09:23:25 PM 43.0528 -88.3517 291° West 162 186 8,100 -48 Level Chicago Center
Fri 09:24:27 PM 43.0697 -88.4108 291° West 167 192 8,000 -97 Descending Chicago Center
Fri 09:25:29 PM 43.0881 -88.4694 293° West 167 192 7,900 -48 Descending Chicago Center
Fri 09:26:31 PM 43.1042 -88.5275 291° West 165 190 7,900  Level Chicago Center
Fri 09:27:33 PM 43.1217 -88.5858 292° West 165 190 7,900  Level Chicago Center
Fri 09:28:35 PM 43.1419 -88.6575 291° West 167 192 7,900  Level Chicago Center
Fri 09:29:37 PM 43.1589 -88.7167 291° West 167 192 7,900  Level Chicago Center
Fri 09:30:38 PM 43.1767 -88.7750 293° West 166 191 7,900  Level Chicago Center
Fri 09:31:40 PM 43.1933 -88.8350 291° West 167 192 7,900  Level Chicago Center
Fri 09:32:42 PM 43.2100 -88.8947 291° West 167 192 7,900  Level Chicago Center
Fri 09:33:44 PM 43.2275 -88.9536 292° West 167 192 7,900  Level Chicago Center
Fri 09:34:46 PM 43.2447 -89.0125 292° West 167 192 7,900  Level Chicago Center
Fri 09:35:47 PM 43.2653 -89.0819 292° West 165 190 7,900 49 Level Chicago Center
Fri 09:36:49 PM 43.2819 -89.1431 291° West 168 193 8,000 48 Climbing Chicago Center
Fri 09:37:51 PM 43.2989 -89.2031 291° West 168 193 8,000 -48 Level Chicago Center
Fri 09:38:53 PM 43.3158 -89.2625 291° West 167 192 7,900 -49 Descending Chicago Center
Fri 09:39:54 PM 43.3328 -89.3231 291° West 168 193 7,900 49 Level Chicago Center
Fri 09:40:56 PM 43.3497 -89.3819 292° West 167 192 8,000  Climbing Chicago Center
Fri 09:41:58 PM 43.3656 -89.4397 291° West 165 190 7,900 -49 Descending Chicago Center
Fri 09:42:59 PM 43.3825 -89.4972 292° West 164 189 7,900  Level Chicago Center
Fri 09:44:01 PM 43.4014 -89.5678 290° West 164 189 7,900 48 Level Chicago Center
Fri 09:45:03 PM 43.4175 -89.6275 290° West 165 190 8,000  Climbing Chicago Center
Fri 09:46:04 PM 43.4356 -89.6883 292° West 169 194 7,900 -49 Descending Chicago Center
Fri 09:47:06 PM 43.4483 -89.7425 288° West 158 182 7,900  Level Chicago Center
Fri 09:48:07 PM 43.4653 -89.7994 292° West 159 183 7,900 49 Level Chicago Center
Fri 09:49:09 PM 43.4811 -89.8561 291° West 160 184 8,000  Climbing Chicago Center
Fri 09:50:11 PM 43.4978 -89.9128 292° West 160 184 7,900 -49 Descending Chicago Center
Fri 09:51:12 PM 43.5297 -89.9700 308° West 158 182 7,900  Level Chicago Center
Fri 09:52:14 PM 43.5539 -90.0192 304° West 156 180 7,900 49 Level Chicago Center
Fri 09:53:15 PM 43.5794 -90.0672 306° West 156 180 8,000 49 Climbing Chicago Center
Fri 09:54:17 PM 43.6022 -90.1186 301° West 156 180 8,000 -48 Level Chicago Center
Fri 09:55:19 PM 43.6264 -90.1694 303° West 158 182 7,900 -49 Descending Chicago Center
Fri 09:56:20 PM 43.6506 -90.2200 303° West 158 182 7,900  Level Chicago Center
Fri 09:57:22 PM 43.6736 -90.2703 302° West 156 180 7,900 49 Level Chicago Center
Fri 09:58:23 PM 43.7014 -90.3286 303° West 159 183 8,000 48 Climbing Chicago Center
Fri 09:59:28 PM 43.7250 -90.3775 304° West 157 181 8,000  Level Chicago Center
Fri 10:00:30 PM 43.7486 -90.4300 302° West 160 184 8,000  Level Chicago Center
Fri 10:01:31 PM 43.7717 -90.4783 303° West 156 180 8,000  Level Chicago Center
Fri 10:02:33 PM 43.8011 -90.5400 304° West 160 184 8,000  Level Chicago Center
Fri 10:03:34 PM 43.8247 -90.5886 304° West 156 180 8,000  Level Chicago Center
Fri 10:04:35 PM 43.8478 -90.6397 302° West 156 180 8,000  Level Chicago Center
Fri 10:05:37 PM 43.8717 -90.6906 303° West 158 182 8,000  Level Chicago Center
Fri 10:06:38 PM 43.8944 -90.7392 303° West 154 177 8,000  Level Chicago Center
Fri 10:07:39 PM 43.9178 -90.7892 303° West 154 177 8,000  Level Chicago Center
Fri 10:08:41 PM 43.9414 -90.8400 303° West 157 181 8,000  Level Chicago Center
Fri 10:09:49 PM 43.9714 -90.9011 304° West 154 177 8,000  Level Minneapolis Center
Fri 10:10:50 PM 43.9953 -90.9542 302° West 155 178 8,000  Level Minneapolis Center
Fri 10:11:52 PM 44.0197 -91.0064 303° West 154 177 8,000  Level Minneapolis Center
Fri 10:12:53 PM 44.0419 -91.0536 303° West 151 174 8,000  Level Minneapolis Center
Fri 10:13:55 PM 44.0647 -91.1061 301° West 153 176 8,000 49 Level Minneapolis Center
Fri 10:14:56 PM 44.0878 -91.1569 302° West 150 173 8,100  Climbing Minneapolis Center
Fri 10:15:57 PM 44.1131 -91.2092 304° West 155 178 8,000 -49 Descending Minneapolis Center
Fri 10:16:59 PM 44.1347 -91.2583 302° West 155 178 8,000 49 Level Minneapolis Center
Fri 10:18:00 PM 44.1583 -91.3106 302° West 153 176 8,100  Climbing Minneapolis Center
Fri 10:19:02 PM 44.1825 -91.3642 302° West 156 180 8,000 -49 Descending Minneapolis Center
Fri 10:20:03 PM 44.2058 -91.4128 304° West 156 180 8,000  Level Minneapolis Center
Fri 10:21:05 PM 44.2278 -91.4647 301° West 150 173 8,000  Level Minneapolis Center
Fri 10:22:06 PM 44.2517 -91.5164 303° West 152 175 8,000  Level Minneapolis Center
Fri 10:23:07 PM 44.2756 -91.5675 303° West 150 173 8,000  Level Minneapolis Center
Fri 10:24:09 PM 44.2961 -91.6153 301° West 150 173 8,000  Level Minneapolis Center
Fri 10:25:10 PM 44.3206 -91.6697 302° West 156 180 8,000 -49 Level Minneapolis Center
Fri 10:26:12 PM 44.3442 -91.7183 304° West 153 176 7,900 -49 Descending Minneapolis Center
Fri 10:27:13 PM 44.3681 -91.7733 301° West 155 178 7,900  Level Minneapolis Center
Fri 10:28:14 PM 44.3903 -91.8242 301° West 155 178 7,900  Level Minneapolis Center
Fri 10:29:16 PM 44.4133 -91.8742 303° West 155 178 7,900  Level Minneapolis Center
Fri 10:30:17 PM 44.4381 -91.9292 302° West 156 180 7,900  Level Minneapolis Center
Fri 10:31:18 PM 44.4603 -91.9800 302° West 157 181 7,900  Level Minneapolis Center
Fri 10:32:20 PM 44.4858 -92.0350 303° West 156 180 7,900 -585 Level Minneapolis Center
Fri 10:33:21 PM 44.5111 -92.0936 301° West 183 211 6,700 -1,033 Descending Minneapolis Center
Fri 10:34:22 PM 44.5386 -92.1528 303° West 182 209 5,800 -878 Descending Minneapolis Center
Fri 10:35:24 PM 44.5678 -92.2197 301° West 189 217 4,900 -829 Descending Minneapolis Center
Fri 10:36:25 PM 44.5956 -92.2819 302° West 190 219 4,100 -541 Descending Minneapolis Center
Fri 10:37:26 PM 44.6219 -92.3392 303° West 191 220 3,800 -98 Descending Minneapolis Center
Fri 10:38:28 PM 44.6467 -92.3972 301° West 178 205 3,900 49 Climbing Minneapolis Center
Fri 10:39:29 PM 44.6711 -92.4547 301° West 171 197 3,900  Level Minneapolis Center
Fri 10:40:30 PM 44.7017 -92.5236 302° West 174 200 3,900  Level Minneapolis Center
Fri 10:41:32 PM 44.7275 -92.5803 303° West 173 199 3,900 -146 Level Minneapolis Center
Fri 10:42:33 PM 44.7528 -92.6383 302° West 174 200 3,600 -443 Descending Minneapolis Center
Fri 10:43:34 PM 44.7778 -92.6986 300° West 179 206 3,000 -341 Descending Minneapolis Center
Fri 10:44:36 PM 44.8039 -92.7575 302° West 178 205 2,900 -146 Descending Minneapolis Center
Fri 10:45:37 PM 44.8275 -92.8117 302° West 166 191 2,700 -295 Descending Minneapolis Center
Fri 10:46:38 PM 44.8525 -92.8692 302° West 172 198 2,300 -246 Descending Minneapolis Center
Fri 10:47:39 PM 44.8761 -92.9228 302° West 164 189 2,200 -195 Descending Minneapolis Center
Fri 10:48:41 PM 44.8958 -92.9919 292° West 160 184 1,900 -439 Descending Minneapolis Center
Fri 10:49:42 PM 44.9119 -93.0406 295° West 140 161 1,300 -393 Descending Minneapolis Center
Fri 10:50:43 PM 44.9375 -93.0708 320° Northwest 132 152 1,100 -197 Descending Minneapolis Center
Fri 10:52:00 PM 44.9346 -93.0603 313° West  Level Estimated

Login

Don't have an account? Register now (free) for customized features, flight alerts, and more!